Time;durP1;ratioP1;P1;durP2;ratioP2;P2;SDS_P1;SDS_P2;PMS_P1;PMS_P2;Temp;Humidity;BMP_temperature;BMP_pressure;BME280_temperature;BME280_humidity;BME280_pressure;Samples;Min_cycle;Max_cycle;Signal;HPM_P1;HPM_P2
2022/02/25 00:00:01;;;;;;;27.73;3.80;;;;;;;;;;5080360;28;20373;-68
2022/02/25 00:02:27;;;;;;;34.67;4.40;;;;;;;;;;5080437;28;20079;-69
2022/02/25 00:04:54;;;;;;;38.63;3.90;;;;;;;;;;5081484;28;20131;-68
2022/02/25 00:07:21;;;;;;;32.67;4.00;;;;;;;;;;5080648;28;20074;-67
2022/02/25 00:09:48;;;;;;;;;;;;;;;;;;5080228;28;20131;-68
2022/02/25 00:12:15;;;;;;;37.72;4.05;;;;;;;;;;5078952;28;19936;-68
2022/02/25 00:14:42;;;;;;;;;;;;;;;;;;5083429;28;20044;-68
2022/02/25 00:17:16;;;;;;;33.95;3.47;;;;;;;;;;5078821;28;20036;-68
2022/02/25 00:19:42;;;;;;;45.95;4.90;;;;;;;;;;5079769;28;20147;-68
2022/02/25 00:22:08;;;;;;;30.73;3.50;;;;;;;;;;5080256;28;20109;-68
2022/02/25 00:24:35;;;;;;;35.03;3.50;;;;;;;;;;5079919;28;20052;-68
2022/02/25 00:27:02;;;;;;;33.25;3.88;;;;;;;;;;5079305;28;20730;-68
2022/02/25 00:29:28;;;;;;;39.80;4.40;;;;;;;;;;5080962;28;20083;-67
2022/02/25 00:31:55;;;;;;;46.55;4.18;;;;;;;;;;5079491;28;20059;-68
2022/02/25 00:34:21;;;;;;;40.90;4.70;;;;;;;;;;5079217;28;20047;-68
2022/02/25 00:36:48;;;;;;;34.67;4.80;;;;;;;;;;5079087;28;20056;-68
2022/02/25 00:39:15;;;;;;;39.40;4.10;;;;;;;;;;5078310;28;20147;-68
2022/02/25 00:41:43;;;;;;;38.15;3.45;;;;;;;;;;5068461;28;20054;-68
2022/02/25 00:44:10;;;;;;;31.20;4.15;;;;;;;;;;5081644;28;20584;-68
2022/02/25 00:46:39;;;;;;;31.17;4.25;;;;;;;;;;5082748;28;20086;-68
2022/02/25 00:49:07;;;;;;;36.17;3.73;;;;;;;;;;5079478;28;20105;-68
2022/02/25 00:51:33;;;;;;;49.00;4.15;;;;;;;;;;5078510;28;20559;-68
2022/02/25 00:54:00;;;;;;;36.35;3.60;;;;;;;;;;5082102;28;20051;-68
2022/02/25 00:56:26;;;;;;;33.17;3.88;;;;;;;;;;5077659;28;20131;-68
2022/02/25 00:58:54;;;;;;;38.95;3.53;;;;;;;;;;5077551;28;20218;-68
2022/02/25 01:01:22;;;;;;;37.92;3.75;;;;;;;;;;5078620;28;20146;-68
2022/02/25 01:03:49;;;;;;;37.53;4.13;;;;;;;;;;5079573;28;20071;-68
2022/02/25 01:06:15;;;;;;;33.40;3.63;;;;;;;;;;5080501;28;20071;-68
2022/02/25 01:08:48;;;;;;;36.28;3.95;;;;;;;;;;5076050;28;20139;-68
2022/02/25 01:11:15;;;;;;;37.63;4.05;;;;;;;;;;5077551;28;20044;-68
2022/02/25 01:13:42;;;;;;;19.45;2.75;;;;;;;;;;5080477;28;20135;-68
2022/02/25 01:16:15;;;;;;;38.17;3.97;;;;;;;;;;5079511;28;21105;-68
2022/02/25 01:18:41;;;;;;;46.47;4.03;;;;;;;;;;5078848;28;20048;-68
2022/02/25 01:21:07;;;;;;;49.00;5.43;;;;;;;;;;5079204;28;20067;-69
2022/02/25 01:23:36;;;;;;;34.55;4.43;;;;;;;;;;5060991;28;20064;-68
2022/02/25 01:26:03;;;;;;;47.97;4.60;;;;;;;;;;5079836;28;20139;-69
2022/02/25 01:28:29;;;;;;;27.50;3.78;;;;;;;;;;5066212;28;20099;-68
2022/02/25 01:31:03;;;;;;;38.72;4.50;;;;;;;;;;5080781;28;20093;-68
2022/02/25 01:33:29;;;;;;;36.90;4.53;;;;;;;;;;5078745;28;20128;-68
2022/02/25 01:35:55;;;;;;;35.28;4.30;;;;;;;;;;5078211;28;20076;-68
2022/02/25 01:38:29;;;;;;;42.67;4.22;;;;;;;;;;5082151;28;20131;-68
2022/02/25 01:40:56;;;;;;;23.38;2.97;;;;;;;;;;5081371;28;20106;-68
2022/02/25 01:43:22;;;;;;;37.70;3.95;;;;;;;;;;5078670;28;20129;-68
2022/02/25 01:45:56;;;;;;;44.33;4.30;;;;;;;;;;5078235;28;20083;-68
2022/02/25 01:48:22;;;;;;;40.63;3.38;;;;;;;;;;5078920;28;20044;-68
2022/02/25 01:50:50;;;;;;;40.33;3.67;;;;;;;;;;5081696;28;20139;-68
2022/02/25 01:53:19;;;;;;;51.45;4.78;;;;;;;;;;5077657;28;20123;-68
2022/02/25 01:55:47;;;;;;;44.65;4.47;;;;;;;;;;5082322;28;20079;-68
2022/02/25 01:58:15;;;;;;;45.45;4.50;;;;;;;;;;5082648;28;20583;-68
2022/02/25 02:00:43;;;;;;;49.42;4.72;;;;;;;;;;5086155;28;20131;-68
2022/02/25 02:03:09;;;;;;;41.05;4.47;;;;;;;;;;5082158;28;20052;-68
2022/02/25 02:05:37;;;;;;;46.25;4.18;;;;;;;;;;5081468;28;20498;-68
2022/02/25 02:08:03;;;;;;;31.00;3.15;;;;;;;;;;5082054;28;20105;-68
2022/02/25 02:10:30;;;;;;;39.13;6.23;;;;;;;;;;5081506;28;20139;-68
2022/02/25 02:12:56;;;;;;;40.20;3.50;;;;;;;;;;5079705;28;20075;-68
2022/02/25 02:15:24;;;;;;;40.35;3.85;;;;;;;;;;5080148;28;20044;-68
2022/02/25 02:17:53;;;;;;;57.70;4.72;;;;;;;;;;5083258;28;20041;-68
2022/02/25 02:20:25;;;;;;;40.08;3.83;;;;;;;;;;5079484;28;20143;-68
2022/02/25 02:22:54;;;;;;;40.75;3.95;;;;;;;;;;5083367;28;20067;-68
2022/02/25 02:25:20;;;;;;;52.55;4.00;;;;;;;;;;5085681;28;20064;-68
2022/02/25 02:30:35;;;;;;;46.85;4.95;;;;;;;;;;5081274;28;20051;-68
2022/02/25 02:33:05;;;;;;;45.88;4.38;;;;;;;;;;5077916;28;20136;-68
2022/02/25 02:35:32;;;;;;;51.63;4.47;;;;;;;;;;5081687;28;20075;-68
2022/02/25 02:37:59;;;;;;;35.67;3.65;;;;;;;;;;5083550;28;20044;-68
2022/02/25 02:40:32;;;;;;;41.03;3.58;;;;;;;;;;5082168;28;20489;-68
2022/02/25 02:43:00;;;;;;;42.70;5.18;;;;;;;;;;5079267;28;20515;-68
2022/02/25 02:45:26;;;;;;;33.83;3.15;;;;;;;;;;5079547;28;20136;-68
2022/02/25 02:48:01;;;;;;;41.38;3.40;;;;;;;;;;5081661;28;20043;-67
2022/02/25 02:50:27;;;;;;;31.17;3.87;;;;;;;;;;5083289;28;20555;-68
2022/02/25 02:52:54;;;;;;;43.70;4.10;;;;;;;;;;5079982;28;20555;-68
2022/02/25 02:55:20;;;;;;;45.20;3.72;;;;;;;;;;5081649;28;20123;-68
2022/02/25 02:57:53;;;;;;;42.63;4.57;;;;;;;;;;5078702;28;20139;-67
2022/02/25 03:00:20;;;;;;;28.58;3.67;;;;;;;;;;5083019;28;20611;-68
2022/02/25 03:02:46;;;;;;;56.63;5.10;;;;;;;;;;5082398;28;20090;-68
2022/02/25 03:05:19;;;;;;;51.90;4.57;;;;;;;;;;5078210;28;20546;-68
2022/02/25 03:07:46;;;;;;;30.73;3.17;;;;;;;;;;5079464;28;20128;-68
2022/02/25 03:10:13;;;;;;;47.28;3.55;;;;;;;;;;5080002;28;20136;-69
2022/02/25 03:12:42;;;;;;;40.45;3.10;;;;;;;;;;5078162;28;20133;-69
2022/02/25 03:15:10;;;;;;;50.22;4.80;;;;;;;;;;5080018;28;20041;-68
2022/02/25 03:17:37;;;;;;;34.17;4.43;;;;;;;;;;5080560;28;20079;-68
2022/02/25 03:20:08;;;;;;;38.17;4.40;;;;;;;;;;5082337;28;20154;-68
2022/02/25 03:22:34;;;;;;;42.30;3.78;;;;;;;;;;5078984;28;20135;-68
2022/02/25 03:25:02;;;;;;;31.58;3.38;;;;;;;;;;5066154;28;20119;-68
2022/02/25 03:27:36;;;;;;;40.88;4.30;;;;;;;;;;5084201;28;20140;-68
2022/02/25 03:30:03;;;;;;;34.47;3.50;;;;;;;;;;5078878;28;20075;-69
2022/02/25 03:32:29;;;;;;;34.35;3.22;;;;;;;;;;5065930;28;20139;-68
2022/02/25 03:35:00;;;;;;;38.30;3.67;;;;;;;;;;5082139;28;20047;-68
2022/02/25 03:37:28;;;;;;;40.20;4.20;;;;;;;;;;5078836;28;20131;-68
2022/02/25 03:39:54;;;;;;;39.08;3.83;;;;;;;;;;5077692;28;21185;-68
2022/02/25 03:42:24;;;;;;;29.70;3.65;;;;;;;;;;5081540;28;20123;-68
2022/02/25 03:44:50;;;;;;;30.23;4.13;;;;;;;;;;5080396;28;20147;-69
2022/02/25 03:47:17;;;;;;;61.97;4.13;;;;;;;;;;5069986;28;20496;-69
2022/02/25 03:49:51;;;;;;;53.67;4.72;;;;;;;;;;5080067;28;20091;-68
2022/02/25 03:52:20;;;;;;;54.95;4.75;;;;;;;;;;5079152;28;20048;-69
2022/02/25 03:54:46;;;;;;;36.78;4.50;;;;;;;;;;5081675;28;20136;-69
2022/02/25 03:57:13;;;;;;;38.20;3.90;;;;;;;;;;5080913;28;20127;-68
2022/02/25 03:59:40;;;;;;;45.40;3.73;;;;;;;;;;5080697;28;20094;-68
2022/02/25 04:02:06;;;;;;;47.08;4.82;;;;;;;;;;5081039;28;20084;-68
2022/02/25 04:04:34;;;;;;;;;;;;;;;;;;5077958;28;20055;-68
2022/02/25 04:07:00;;;;;;;36.88;4.55;;;;;;;;;;5078884;28;19927;-68
2022/02/25 04:09:27;;;;;;;53.63;4.13;;;;;;;;;;5079390;28;20167;-69
2022/02/25 04:12:02;;;;;;;38.65;3.58;;;;;;;;;;5080368;28;20095;-68
2022/02/25 04:14:28;;;;;;;51.22;4.20;;;;;;;;;;5079470;28;20110;-68
2022/02/25 04:16:55;;;;;;;52.25;5.35;;;;;;;;;;5079605;28;20139;-69
2022/02/25 04:19:27;;;;;;;40.88;3.42;;;;;;;;;;5080292;28;20137;-68
2022/02/25 04:21:54;;;;;;;41.75;4.60;;;;;;;;;;5078300;28;20580;-68
2022/02/25 04:24:20;;;;;;;39.72;4.15;;;;;;;;;;5079187;28;20476;-69
2022/02/25 04:26:53;;;;;;;63.70;5.10;;;;;;;;;;5080554;28;20460;-68
2022/02/25 04:29:20;;;;;;;57.95;5.40;;;;;;;;;;5063669;28;20131;-68
2022/02/25 04:31:46;;;;;;;43.90;4.10;;;;;;;;;;5080433;28;20090;-68
2022/02/25 04:34:20;;;;;;;53.55;4.53;;;;;;;;;;5079734;28;20076;-69
2022/02/25 04:36:46;;;;;;;45.30;3.90;;;;;;;;;;5077654;28;20573;-69
2022/02/25 04:39:13;;;;;;;54.90;5.03;;;;;;;;;;5082077;28;20127;-68
2022/02/25 04:41:40;;;;;;;44.60;4.10;;;;;;;;;;5078550;28;20048;-69
2022/02/25 04:44:06;;;;;;;77.97;5.47;;;;;;;;;;5080368;28;20787;-69
2022/02/25 04:46:37;;;;;;;61.75;5.30;;;;;;;;;;5080355;28;20329;-70
2022/02/25 04:49:04;;;;;;;60.55;5.47;;;;;;;;;;5079837;28;20086;-68
2022/02/25 04:51:31;;;;;;;55.45;4.88;;;;;;;;;;5079617;28;20170;-69
2022/02/25 04:53:57;;;;;;;58.67;4.93;;;;;;;;;;5077066;28;20132;-68
2022/02/25 04:56:25;;;;;;;;;;;;;;;;;;5078965;28;20123;-68
2022/02/25 04:58:52;;;;;;;58.10;4.75;;;;;;;;;;5079071;28;19974;-69
2022/02/25 05:01:18;;;;;;;63.78;5.10;;;;;;;;;;5077791;28;20084;-68
2022/02/25 05:03:52;;;;;;;62.60;5.88;;;;;;;;;;5078469;28;20458;-69
2022/02/25 05:06:19;;;;;;;67.53;6.20;;;;;;;;;;5078322;28;20044;-69
2022/02/25 05:08:45;;;;;;;58.83;5.40;;;;;;;;;;5078105;28;20088;-69
2022/02/25 05:11:12;;;;;;;59.33;5.78;;;;;;;;;;5085167;28;20067;-69
2022/02/25 05:13:41;;;;;;;44.97;5.30;;;;;;;;;;5083274;28;20054;-68
2022/02/25 05:21:45;;;;;;;43.55;4.20;;;;;;;;;;5078900;28;20075;-69
2022/02/25 05:24:14;;;;;;;49.67;4.70;;;;;;;;;;5079426;28;20067;-68
2022/02/25 05:26:40;;;;;;;57.50;4.85;;;;;;;;;;5081123;28;20189;-69
2022/02/25 05:29:06;;;;;;;35.78;3.92;;;;;;;;;;5081031;28;20159;-68
2022/02/25 05:31:34;;;;;;;41.05;4.75;;;;;;;;;;5083610;28;20483;-68
2022/02/25 05:34:00;;;;;;;45.53;4.47;;;;;;;;;;5083885;28;20055;-68
2022/02/25 05:36:27;;;;;;;43.17;4.90;;;;;;;;;;5083664;28;20155;-68
2022/02/25 05:38:55;;;;;;;32.10;3.67;;;;;;;;;;5084440;28;20163;-69
2022/02/25 05:41:22;;;;;;;48.53;4.03;;;;;;;;;;5082628;28;20044;-68
2022/02/25 05:43:49;;;;;;;54.13;3.83;;;;;;;;;;5084168;28;20048;-68
2022/02/25 05:46:20;;;;;;;52.13;4.50;;;;;;;;;;5079038;28;20556;-68
2022/02/25 05:48:46;;;;;;;44.60;3.47;;;;;;;;;;5079528;28;20048;-68
2022/02/25 05:51:13;;;;;;;44.55;4.97;;;;;;;;;;5081404;28;20109;-69
2022/02/25 05:53:40;;;;;;;42.47;3.65;;;;;;;;;;5089085;28;20091;-68
2022/02/25 05:56:06;;;;;;;42.55;4.00;;;;;;;;;;5082458;28;20088;-68
2022/02/25 05:58:32;;;;;;;37.80;4.00;;;;;;;;;;5082283;28;20130;-68
2022/02/25 06:01:03;;;;;;;40.25;4.13;;;;;;;;;;5084312;28;20078;-69
2022/02/25 06:03:29;;;;;;;40.63;3.53;;;;;;;;;;5083081;28;20077;-68
2022/02/25 06:05:56;;;;;;;38.88;4.18;;;;;;;;;;5082509;28;20735;-69
2022/02/25 06:08:29;;;;;;;49.80;4.22;;;;;;;;;;5082095;28;20131;-68
2022/02/25 06:10:56;;;;;;;31.50;4.07;;;;;;;;;;5083010;28;20118;-69
2022/02/25 06:13:23;;;;;;;40.97;4.05;;;;;;;;;;5083000;28;20427;-68
2022/02/25 06:15:58;;;;;;;38.63;3.92;;;;;;;;;;5084565;28;20063;-69
2022/02/25 06:18:24;;;;;;;39.28;4.30;;;;;;;;;;5084391;28;20052;-68
2022/02/25 06:20:50;;;;;;;35.72;4.57;;;;;;;;;;5081812;28;20123;-69
2022/02/25 06:23:25;;;;;;;49.78;5.38;;;;;;;;;;5082494;28;20080;-68
2022/02/25 06:25:54;;;;;;;47.30;4.93;;;;;;;;;;5080716;28;20103;-69
2022/02/25 06:28:20;;;;;;;45.38;4.38;;;;;;;;;;5082062;28;20137;-68
2022/02/25 06:30:55;;;;;;;47.63;4.35;;;;;;;;;;5080313;28;20135;-68
2022/02/25 06:33:21;;;;;;;40.05;3.97;;;;;;;;;;5081561;28;20044;-68
2022/02/25 06:35:47;;;;;;;52.58;4.60;;;;;;;;;;5079118;28;20576;-68
2022/02/25 06:38:21;;;;;;;53.75;6.38;;;;;;;;;;5078770;28;20083;-68
2022/02/25 06:40:47;;;;;;;54.15;4.82;;;;;;;;;;5076298;28;20076;-67
2022/02/25 06:43:13;;;;;;;51.05;5.63;;;;;;;;;;5078874;28;20143;-68
2022/02/25 06:45:47;;;;;;;56.53;4.68;;;;;;;;;;5082966;28;20131;-69
2022/02/25 06:48:14;;;;;;;68.40;6.70;;;;;;;;;;5082299;28;20643;-68
2022/02/25 06:50:40;;;;;;;55.72;6.07;;;;;;;;;;5082716;28;20365;-69
2022/02/25 06:53:08;;;;;;;51.83;5.45;;;;;;;;;;5081146;28;20098;-69
2022/02/25 06:55:34;;;;;;;51.50;5.43;;;;;;;;;;5081358;28;20475;-69
2022/02/25 06:58:02;;;;;;;63.00;5.35;;;;;;;;;;5082752;28;20048;-70
2022/02/25 07:00:30;;;;;;;49.67;5.85;;;;;;;;;;5070135;28;20056;-70
2022/02/25 07:02:57;;;;;;;56.92;5.95;;;;;;;;;;5080113;28;20056;-70
2022/02/25 07:05:24;;;;;;;58.65;6.13;;;;;;;;;;5080223;28;20055;-70
2022/02/25 07:07:57;;;;;;;53.38;5.30;;;;;;;;;;5080895;28;20056;-70
2022/02/25 07:10:31;;;;;;;65.32;6.28;;;;;;;;;;5077229;28;20048;-70
2022/02/25 07:13:03;;;;;;;50.50;6.03;;;;;;;;;;5080000;28;20124;-71
2022/02/25 07:15:30;;;;;;;55.92;5.50;;;;;;;;;;5082051;28;20079;-70
2022/02/25 07:17:57;;;;;;;61.35;6.00;;;;;;;;;;5081659;28;20088;-71
2022/02/25 07:20:30;;;;;;;64.30;6.00;;;;;;;;;;5082346;28;20044;-72
2022/02/25 07:22:58;;;;;;;59.28;5.85;;;;;;;;;;5079645;28;20569;-71
2022/02/25 07:25:25;;;;;;;59.20;6.20;;;;;;;;;;5080945;28;20128;-71
2022/02/25 07:27:58;;;;;;;67.57;6.22;;;;;;;;;;5081477;28;20095;-71
2022/02/25 07:30:26;;;;;;;58.00;6.45;;;;;;;;;;5081242;28;20088;-71
2022/02/25 07:32:53;;;;;;;69.28;5.80;;;;;;;;;;5079777;28;20128;-71
2022/02/25 07:35:28;;;;;;;59.70;6.38;;;;;;;;;;5083606;28;20052;-71
2022/02/25 07:37:57;;;;;;;46.65;5.30;;;;;;;;;;5078681;28;20048;-70
2022/02/25 07:40:24;;;;;;;62.33;6.40;;;;;;;;;;5077800;28;20135;-71
2022/02/25 07:42:51;;;;;;;55.55;6.28;;;;;;;;;;5079252;28;20227;-71
2022/02/25 07:45:18;;;;;;;54.67;5.25;;;;;;;;;;5078249;28;20538;-70
2022/02/25 07:47:44;;;;;;;46.63;5.07;;;;;;;;;;5077412;28;20816;-70
2022/02/25 07:50:12;;;;;;;44.35;5.63;;;;;;;;;;5079564;28;20542;-71
2022/02/25 07:52:38;;;;;;;;;;;;;;;;;;5081781;28;20098;-71
2022/02/25 07:55:06;;;;;;;61.53;5.85;;;;;;;;;;5080298;28;19924;-71
2022/02/25 07:57:35;;;;;;;73.20;5.75;;;;;;;;;;5081245;28;20131;-72
2022/02/25 08:00:20;;;;;;;46.67;5.20;;;;;;;;;;5080782;28;20082;-71
2022/02/25 08:02:54;;;;;;;60.90;6.05;;;;;;;;;;5081295;28;20046;-71
2022/02/25 08:05:21;;;;;;;62.47;7.00;;;;;;;;;;5081445;28;20042;-71
2022/02/25 08:07:47;;;;;;;56.35;5.70;;;;;;;;;;5079571;28;20135;-71
2022/02/25 08:10:16;;;;;;;59.53;5.75;;;;;;;;;;5081156;28;20626;-71
2022/02/25 08:12:42;;;;;;;53.90;5.75;;;;;;;;;;5078128;28;20515;-71
2022/02/25 08:15:10;;;;;;;38.45;5.22;;;;;;;;;;5075260;28;20055;-71
2022/02/25 08:17:39;;;;;;;60.55;6.40;;;;;;;;;;5078579;28;20520;-72
2022/02/25 08:20:05;;;;;;;60.50;5.75;;;;;;;;;;5078381;28;20131;-72
2022/02/25 08:22:33;;;;;;;54.17;5.65;;;;;;;;;;5076747;28;20097;-72
2022/02/25 08:24:59;;;;;;;44.03;5.93;;;;;;;;;;5079074;28;20114;-72
2022/02/25 08:27:26;;;;;;;59.10;5.90;;;;;;;;;;5082087;28;20075;-72
2022/02/25 08:29:52;;;;;;;54.78;6.03;;;;;;;;;;5076878;28;20048;-72
2022/02/25 08:32:26;;;;;;;45.53;5.40;;;;;;;;;;5079979;28;20751;-72
2022/02/25 08:34:52;;;;;;;46.40;4.72;;;;;;;;;;5082151;28;20558;-72
2022/02/25 08:37:20;;;;;;;52.25;6.55;;;;;;;;;;5083136;28;20427;-71
2022/02/25 08:39:47;;;;;;;54.95;5.50;;;;;;;;;;5081098;28;20842;-71
2022/02/25 08:42:14;;;;;;;54.78;5.53;;;;;;;;;;5083692;28;20584;-71
2022/02/25 08:44:42;;;;;;;37.70;5.68;;;;;;;;;;5077543;28;20048;-71
2022/02/25 08:47:15;;;;;;;43.45;5.35;;;;;;;;;;5076259;28;20490;-71
2022/02/25 08:49:42;;;;;;;50.40;5.83;;;;;;;;;;5079504;28;20048;-72
2022/02/25 08:52:10;;;;;;;46.38;4.35;;;;;;;;;;5081170;28;20131;-71
2022/02/25 08:54:39;;;;;;;46.60;4.68;;;;;;;;;;5080927;28;20044;-72
2022/02/25 08:57:06;;;;;;;29.83;4.05;;;;;;;;;;5073877;28;20127;-71
2022/02/25 08:59:33;;;;;;;44.47;4.80;;;;;;;;;;5082075;28;20048;-71
2022/02/25 09:02:07;;;;;;;39.28;4.25;;;;;;;;;;5081857;28;20242;-71
2022/02/25 09:04:34;;;;;;;38.13;4.65;;;;;;;;;;5081976;28;20051;-71
2022/02/25 09:07:00;;;;;;;51.97;5.07;;;;;;;;;;5082961;28;20036;-71
2022/02/25 09:09:27;;;;;;;43.90;5.25;;;;;;;;;;5080602;28;20656;-71
2022/02/25 09:11:53;;;;;;;37.13;4.30;;;;;;;;;;5081032;28;20075;-71
2022/02/25 09:14:20;;;;;;;42.67;4.18;;;;;;;;;;5077516;28;20087;-71
2022/02/25 09:16:54;;;;;;;53.17;5.35;;;;;;;;;;5078493;28;20087;-70
2022/02/25 09:19:20;;;;;;;28.70;4.03;;;;;;;;;;5078049;28;20435;-70
2022/02/25 09:21:47;;;;;;;29.30;4.00;;;;;;;;;;5079845;28;20075;-71
2022/02/25 09:24:14;;;;;;;28.17;3.72;;;;;;;;;;5078927;28;20091;-70
2022/02/25 09:26:40;;;;;;;33.60;3.22;;;;;;;;;;5079600;28;20076;-71
2022/02/25 09:29:07;;;;;;;37.55;4.40;;;;;;;;;;5074800;28;20144;-71
2022/02/25 09:31:34;;;;;;;33.53;3.80;;;;;;;;;;5079665;28;20579;-71
2022/02/25 09:34:00;;;;;;;36.50;3.50;;;;;;;;;;5083157;28;20048;-71
2022/02/25 09:36:27;;;;;;;32.13;4.55;;;;;;;;;;5080470;28;20729;-70
2022/02/25 09:39:00;;;;;;;35.33;4.47;;;;;;;;;;5075719;28;20460;-70
2022/02/25 09:41:27;;;;;;;36.40;4.00;;;;;;;;;;5077465;28;20084;-71
2022/02/25 09:43:53;;;;;;;32.25;4.15;;;;;;;;;;5079242;28;20052;-70
2022/02/25 09:46:27;;;;;;;31.55;4.43;;;;;;;;;;5081187;28;20420;-70
2022/02/25 09:48:53;;;;;;;30.98;4.18;;;;;;;;;;5075006;28;20040;-71
2022/02/25 09:51:20;;;;;;;30.00;4.10;;;;;;;;;;5074201;28;20044;-72
2022/02/25 09:53:47;;;;;;;37.17;5.03;;;;;;;;;;5077857;28;20079;-71
2022/02/25 09:56:13;;;;;;;31.73;4.50;;;;;;;;;;5077822;28;20151;-71
2022/02/25 09:58:39;;;;;;;19.00;3.22;;;;;;;;;;5075500;28;20135;-71
2022/02/25 10:01:06;;;;;;;32.13;3.63;;;;;;;;;;5081934;28;20124;-70
2022/02/25 10:03:36;;;;;;;28.37;4.07;;;;;;;;;;5077320;28;20415;-71
2022/02/25 10:06:08;;;;;;;31.42;3.60;;;;;;;;;;5079192;28;20117;-70
2022/02/25 10:08:35;;;;;;;28.83;4.60;;;;;;;;;;5080120;28;20382;-71
2022/02/25 10:11:02;;;;;;;33.13;3.60;;;;;;;;;;5082530;28;20051;-70
2022/02/25 10:13:30;;;;;;;27.52;3.03;;;;;;;;;;5083495;28;20139;-71
2022/02/25 10:16:18;;;;;;;32.78;4.63;;;;;;;;;;5081416;28;20052;-70
2022/02/25 10:18:59;;;;;;;31.95;3.60;;;;;;;;;;5078057;28;20055;-70
2022/02/25 10:21:25;;;;;;;31.58;3.92;;;;;;;;;;5085516;28;20537;-71
2022/02/25 10:24:06;;;;;;;23.20;3.17;;;;;;;;;;5082593;28;20059;-70
2022/02/25 10:26:36;;;;;;;29.50;5.57;;;;;;;;;;5080388;28;20132;-70
2022/02/25 10:29:06;;;;;;;28.13;3.55;;;;;;;;;;5081921;28;20087;-70
2022/02/25 10:31:33;;;;;;;32.77;4.27;;;;;;;;;;5081347;28;20082;-70
2022/02/25 10:34:02;;;;;;;20.27;2.97;;;;;;;;;;5080696;28;20503;-70
2022/02/25 10:36:44;;;;;;;28.27;4.35;;;;;;;;;;5082349;28;20052;-70
2022/02/25 10:39:16;;;;;;;26.90;3.38;;;;;;;;;;5084821;28;20135;-70
2022/02/25 10:41:58;;;;;;;26.77;3.17;;;;;;;;;;5083078;28;20461;-70
2022/02/25 10:44:36;;;;;;;30.15;3.92;;;;;;;;;;5086070;28;20071;-70
2022/02/25 10:47:12;;;;;;;15.45;2.65;;;;;;;;;;5079464;28;20460;-70
2022/02/25 10:49:38;;;;;;;27.35;3.95;;;;;;;;;;5082773;28;20517;-70
2022/02/25 10:52:20;;;;;;;25.75;3.67;;;;;;;;;;5083280;28;20187;-70
2022/02/25 10:54:48;;;;;;;25.70;3.65;;;;;;;;;;5066507;28;20118;-70
2022/02/25 10:57:22;;;;;;;27.88;3.10;;;;;;;;;;5083475;28;20074;-70
2022/02/25 10:59:48;;;;;;;16.23;3.00;;;;;;;;;;5082770;28;20059;-70
2022/02/25 11:02:29;;;;;;;29.35;3.40;;;;;;;;;;5084340;28;20048;-69
2022/02/25 11:04:59;;;;;;;26.35;3.30;;;;;;;;;;5083334;28;20085;-70
2022/02/25 11:07:29;;;;;;;22.52;3.22;;;;;;;;;;5079474;28;20080;-69
2022/02/25 11:09:56;;;;;;;16.77;2.83;;;;;;;;;;5076953;28;20052;-69
2022/02/25 11:12:26;;;;;;;24.70;2.75;;;;;;;;;;5083805;28;20048;-70
2022/02/25 11:14:53;;;;;;;22.23;3.70;;;;;;;;;;5084481;28;20234;-70
2022/02/25 11:17:20;;;;;;;18.80;3.25;;;;;;;;;;5078878;28;20074;-69
2022/02/25 11:20:00;;;;;;;23.90;3.10;;;;;;;;;;5081855;28;20054;-69
2022/02/25 11:22:28;;;;;;;23.40;2.83;;;;;;;;;;5083728;28;20478;-70
2022/02/25 11:24:57;;;;;;;18.08;3.10;;;;;;;;;;5082385;28;20155;-69
2022/02/25 11:27:32;;;;;;;17.98;3.03;;;;;;;;;;5084657;28;20503;-70
2022/02/25 11:30:09;;;;;;;19.15;2.63;;;;;;;;;;5081846;28;20142;-69
2022/02/25 11:32:42;;;;;;;24.33;4.10;;;;;;;;;;5080679;28;20083;-70
2022/02/25 11:35:21;;;;;;;16.40;2.92;;;;;;;;;;5074623;28;20049;-69
2022/02/25 11:37:52;;;;;;;19.65;2.53;;;;;;;;;;5082041;28;20087;-70
2022/02/25 11:40:54;;;;;;;20.98;2.70;;;;;;;;;;5077736;28;20146;-70
2022/02/25 11:43:31;;;;;;;24.20;3.72;;;;;;;;;;5064995;28;20084;-70
2022/02/25 11:46:07;;;;;;;15.43;2.55;;;;;;;;;;5082722;28;20139;-70
2022/02/25 11:48:37;;;;;;;21.08;2.75;;;;;;;;;;5082620;28;20124;-69
2022/02/25 11:51:04;;;;;;;32.28;4.28;;;;;;;;;;5079239;28;20475;-70
2022/02/25 11:53:31;;;;;;;20.70;3.20;;;;;;;;;;5082435;28;20075;-70
2022/02/25 11:56:14;;;;;;;19.63;2.63;;;;;;;;;;5084976;28;20126;-69
2022/02/25 11:58:48;;;;;;;17.65;2.40;;;;;;;;;;5078679;28;20056;-69
2022/02/25 12:01:17;;;;;;;16.23;2.70;;;;;;;;;;5083194;28;20048;-70
2022/02/25 12:04:02;;;;;;;24.48;3.95;;;;;;;;;;5078178;28;20475;-70
2022/02/25 12:06:51;;;;;;;25.70;3.50;;;;;;;;;;5078581;28;20056;-70
2022/02/25 12:09:38;;;;;;;23.80;3.40;;;;;;;;;;5067108;28;20499;-69
2022/02/25 12:12:23;;;;;;;26.15;2.70;;;;;;;;;;5081693;28;20131;-69
2022/02/25 12:15:08;;;;;;;20.80;2.83;;;;;;;;;;5060523;28;20354;-70
2022/02/25 12:17:35;;;;;;;17.75;2.60;;;;;;;;;;5079999;28;20092;-69
2022/02/25 12:20:06;;;;;;;22.10;3.30;;;;;;;;;;5081510;28;20083;-72
2022/02/25 12:22:53;;;;;;;25.50;3.53;;;;;;;;;;5079131;28;20127;-70
2022/02/25 12:25:38;;;;;;;24.60;3.35;;;;;;;;;;5070171;28;20045;-70
2022/02/25 12:28:05;;;;;;;26.77;3.42;;;;;;;;;;5082766;28;20051;-69
2022/02/25 12:30:38;;;;;;;24.27;3.72;;;;;;;;;;5078851;28;20084;-70
2022/02/25 12:33:23;;;;;;;20.55;2.70;;;;;;;;;;5076256;28;20435;-70
2022/02/25 12:35:58;;;;;;;16.80;2.85;;;;;;;;;;5076324;28;20080;-70
2022/02/25 12:38:30;;;;;;;22.17;3.13;;;;;;;;;;5077951;28;20094;-70
2022/02/25 12:41:15;;;;;;;17.35;2.80;;;;;;;;;;5065505;28;20055;-70
2022/02/25 12:43:41;;;;;;;;;;;;;;;;;;5077631;28;20095;-69
2022/02/25 12:46:09;;;;;;;16.45;3.35;;;;;;;;;;5077812;28;19924;-70
2022/02/25 12:48:36;;;;;;;30.77;3.23;;;;;;;;;;5079662;28;20054;-69
2022/02/25 12:51:04;;;;;;;20.13;2.78;;;;;;;;;;5079639;28;20405;-69
2022/02/25 12:53:30;;;;;;;23.23;2.67;;;;;;;;;;5080578;28;20136;-69
2022/02/25 12:55:58;;;;;;;22.58;3.13;;;;;;;;;;5076068;28;20516;-70
2022/02/25 12:58:34;;;;;;;16.88;2.95;;;;;;;;;;5080398;28;20603;-69
2022/02/25 13:01:01;;;;;;;14.05;2.60;;;;;;;;;;5074993;28;20531;-70
2022/02/25 13:03:31;;;;;;;17.38;2.75;;;;;;;;;;5077715;28;20068;-70
2022/02/25 13:05:57;;;;;;;24.27;3.00;;;;;;;;;;5077967;28;20079;-69
2022/02/25 13:08:31;;;;;;;14.38;2.72;;;;;;;;;;5082397;28;20068;-69
2022/02/25 13:10:59;;;;;;;12.40;2.47;;;;;;;;;;5082903;28;20147;-70
2022/02/25 13:13:25;;;;;;;;;;;;;;;;;;5080106;28;20730;-70
2022/02/25 13:16:16;;;;;;;19.08;3.45;;;;;;;;;;5083214;28;19959;-70
2022/02/25 13:18:43;;;;;;;15.63;2.45;;;;;;;;;;5077763;28;20044;-69
2022/02/25 13:21:16;;;;;;;19.17;2.90;;;;;;;;;;5077451;28;20076;-70
2022/02/25 13:23:46;;;;;;;21.38;2.60;;;;;;;;;;5075771;28;20102;-70
2022/02/25 13:26:18;;;;;;;17.88;2.83;;;;;;;;;;5081519;28;20097;-69
2022/02/25 13:28:45;;;;;;;19.77;2.83;;;;;;;;;;5081656;28;20090;-69
2022/02/25 13:31:11;;;;;;;16.60;2.95;;;;;;;;;;5083611;28;20098;-69
2022/02/25 13:33:38;;;;;;;21.03;2.90;;;;;;;;;;5080747;28;20075;-70
2022/02/25 13:36:05;;;;;;;;;;;;;;;;;;5081192;28;20050;-69
2022/02/25 13:38:36;;;;;;;10.45;2.75;;;;;;;;;;5082713;28;20038;-69
2022/02/25 13:41:02;;;;;;;13.40;2.97;;;;;;;;;;5080440;28;20139;-69
2022/02/25 13:43:42;;;;;;;10.65;1.60;;;;;;;;;;5081160;28;20044;-69
2022/02/25 13:46:20;;;;;;;11.90;2.05;;;;;;;;;;5082500;28;20058;-69
2022/02/25 13:54:47;;;;;;;9.27;1.75;;;;;;;;;;5086747;28;20138;-69
2022/02/25 13:57:15;;;;;;;9.70;2.40;;;;;;;;;;5087992;28;20092;-69
2022/02/25 13:59:45;;;;;;;11.88;2.58;;;;;;;;;;5084852;28;20082;-69
2022/02/25 14:02:23;;;;;;;11.98;1.73;;;;;;;;;;5073127;28;20067;-69
2022/02/25 14:05:01;;;;;;;20.42;2.70;;;;;;;;;;5070801;28;20530;-69
2022/02/25 14:07:38;;;;;;;8.68;1.75;;;;;;;;;;5080989;28;20504;-69
2022/02/25 14:10:07;;;;;;;12.15;2.40;;;;;;;;;;5084919;28;20273;-68
2022/02/25 14:12:42;;;;;;;16.42;1.90;;;;;;;;;;5085587;28;20464;-68
2022/02/25 14:15:16;;;;;;;13.82;1.75;;;;;;;;;;5085771;28;20466;-69
2022/02/25 14:17:44;;;;;;;10.68;2.08;;;;;;;;;;5085669;28;20147;-69
2022/02/25 14:20:10;;;;;;;;;;;;;;;;;;5085781;28;20078;-69
2022/02/25 14:22:42;;;;;;;14.15;2.47;;;;;;;;;;5084122;28;20013;-70
2022/02/25 14:25:18;;;;;;;10.20;1.88;;;;;;;;;;5083580;28;20609;-69
2022/02/25 14:27:52;;;;;;;11.38;2.47;;;;;;;;;;5085336;28;20068;-69
2022/02/25 14:30:19;;;;;;;11.43;1.80;;;;;;;;;;5084292;28;20135;-69
2022/02/25 14:32:53;;;;;;;11.90;1.98;;;;;;;;;;5083685;28;20067;-69
2022/02/25 14:35:24;;;;;;;17.15;2.75;;;;;;;;;;5081814;28;20051;-69
2022/02/25 14:37:51;;;;;;;11.27;2.25;;;;;;;;;;5080516;28;20052;-69
2022/02/25 14:40:19;;;;;;;9.35;2.10;;;;;;;;;;5084852;28;20124;-69
2022/02/25 14:42:48;;;;;;;7.65;1.70;;;;;;;;;;5085970;28;20448;-69
2022/02/25 14:45:14;;;;;;;11.70;1.97;;;;;;;;;;5083816;28;20514;-70
2022/02/25 14:47:41;;;;;;;13.82;2.22;;;;;;;;;;5085677;28;20043;-69
2022/02/25 14:50:08;;;;;;;17.20;2.80;;;;;;;;;;5067345;28;20056;-69
2022/02/25 14:52:35;;;;;;;7.10;1.80;;;;;;;;;;5085267;28;22036;-69
2022/02/25 14:55:03;;;;;;;16.52;2.13;;;;;;;;;;5081485;28;20580;-69
2022/02/25 14:57:30;;;;;;;16.40;2.28;;;;;;;;;;5083595;28;20559;-69
2022/02/25 14:59:56;;;;;;;8.38;2.08;;;;;;;;;;5083631;28;20456;-69